Time;durP1;ratioP1;P1;durP2;ratioP2;P2;SDS_P1;SDS_P2;PMS_P1;PMS_P2;Temp;Humidity;BMP_temperature;BMP_pressure;BME280_temperature;BME280_humidity;BME280_pressure;Samples;Min_cycle;Max_cycle;Signal;HPM_P1;HPM_P2
2023/11/21 00:01:42;;;;;;;0.10;0.10;;;22.00;45.90;;;;;;5051832;28;20195;-47
2023/11/21 00:04:15;;;;;;;0.00;0.00;;;22.00;46.00;;;;;;5052039;28;20662;-55
2023/11/21 00:06:46;;;;;;;0.10;0.10;;;22.10;46.00;;;;;;5047330;28;20185;-55
2023/11/21 00:09:17;;;;;;;0.00;0.00;;;22.10;46.00;;;;;;5031256;28;20212;-52
2023/11/21 00:11:48;;;;;;;0.00;0.00;;;22.10;46.00;;;;;;5042883;28;20202;-54
2023/11/21 00:14:18;;;;;;;0.00;0.00;;;22.10;46.00;;;;;;5051717;28;20199;-53
2023/11/21 00:16:51;;;;;;;0.00;0.00;;;22.10;45.90;;;;;;5051306;28;20706;-55
2023/11/21 00:19:22;;;;;;;0.10;0.10;;;22.10;45.90;;;;;;5035512;28;20224;-55
2023/11/21 00:21:52;;;;;;;0.10;0.10;;;22.20;45.90;;;;;;5031697;28;20192;-55
2023/11/21 00:24:24;;;;;;;0.05;0.05;;;22.20;45.90;;;;;;5031613;28;20192;-54
2023/11/21 00:26:55;;;;;;;0.00;0.00;;;22.20;45.90;;;;;;5032007;28;20672;-57
2023/11/21 00:29:26;;;;;;;0.00;0.00;;;22.20;45.90;;;;;;5031903;28;20216;-55
2023/11/21 00:31:58;;;;;;;0.10;0.10;;;22.20;45.90;;;;;;5031988;28;20206;-54
2023/11/21 00:34:29;;;;;;;0.00;0.00;;;22.20;45.80;;;;;;5031603;28;20196;-57
2023/11/21 00:37:00;;;;;;;0.00;0.00;;;22.20;45.80;;;;;;5031605;28;20227;-52
2023/11/21 00:39:30;;;;;;;0.00;0.00;;;22.30;45.90;;;;;;5031088;28;20208;-55
2023/11/21 00:42:01;;;;;;;0.00;0.00;;;22.30;45.90;;;;;;5044279;28;20203;-56
2023/11/21 00:44:32;;;;;;;0.00;0.00;;;22.30;45.80;;;;;;5051311;28;20203;-49
2023/11/21 00:47:04;;;;;;;0.00;0.00;;;22.40;45.90;;;;;;5051457;28;20207;-56
2023/11/21 00:49:35;;;;;;;0.00;0.00;;;22.30;45.80;;;;;;5031271;28;20207;-54
2023/11/21 00:52:06;;;;;;;0.05;0.05;;;22.40;45.90;;;;;;5031386;28;20262;-56
2023/11/21 00:54:36;;;;;;;0.00;0.00;;;22.40;45.90;;;;;;5031295;28;20200;-55
2023/11/21 00:57:08;;;;;;;0.08;0.08;;;22.40;45.90;;;;;;5030465;28;20695;-55
2023/11/21 00:59:39;;;;;;;0.10;0.10;;;22.40;45.90;;;;;;5031146;28;20822;-53
2023/11/21 01:02:12;;;;;;;0.00;0.00;;;22.50;45.90;;;;;;5031385;28;20200;-56
2023/11/21 01:04:43;;;;;;;0.00;0.00;;;22.40;45.90;;;;;;5031531;28;20231;-46
2023/11/21 01:07:14;;;;;;;0.10;0.10;;;22.50;45.90;;;;;;5031219;28;20239;-44
2023/11/21 01:09:44;;;;;;;0.08;0.08;;;22.50;45.90;;;;;;5031397;28;20196;-52
2023/11/21 01:12:15;;;;;;;0.00;0.00;;;22.50;45.90;;;;;;5046195;28;20207;-45
2023/11/21 01:14:46;;;;;;;0.00;0.00;;;22.50;45.90;;;;;;5052907;28;20204;-53
2023/11/21 01:17:18;;;;;;;0.10;0.10;;;22.50;45.90;;;;;;5055140;28;20541;-54
2023/11/21 01:22:48;;;;;;;0.00;0.00;;;22.60;45.90;;;;;;5051969;28;20207;-45
2023/11/21 01:25:19;;;;;;;0.00;0.00;;;22.60;45.90;;;;;;5054826;28;20709;-52
2023/11/21 01:27:48;;;;;;;0.10;0.10;;;22.60;45.90;;;;;;5055084;28;20294;-55
2023/11/21 01:30:19;;;;;;;0.00;0.00;;;22.60;46.00;;;;;;5054764;28;20204;-53
2023/11/21 01:32:52;;;;;;;0.00;0.00;;;22.60;46.00;;;;;;5054609;28;20196;-55
2023/11/21 01:35:22;;;;;;;0.00;0.00;;;22.60;46.00;;;;;;5054816;28;20230;-54
2023/11/21 01:37:53;;;;;;;0.00;0.00;;;22.60;46.00;;;;;;5054647;28;20231;-50
2023/11/21 01:40:24;;;;;;;0.10;0.10;;;22.70;46.00;;;;;;5054738;28;20650;-55
2023/11/21 01:42:55;;;;;;;0.00;0.00;;;22.70;46.00;;;;;;5054622;28;20201;-56
2023/11/21 01:45:27;;;;;;;0.00;0.00;;;22.70;46.00;;;;;;5054645;28;20196;-54
2023/11/21 01:48:00;;;;;;;0.00;0.00;;;22.70;46.00;;;;;;5054540;28;20247;-56
2023/11/21 01:50:31;;;;;;;0.10;0.10;;;22.70;46.00;;;;;;5054578;28;20205;-56
2023/11/21 01:53:03;;;;;;;0.10;0.10;;;22.80;46.10;;;;;;5054875;28;20195;-56
2023/11/21 01:55:34;;;;;;;0.00;0.00;;;22.80;46.10;;;;;;5054611;28;20265;-54
2023/11/21 01:58:05;;;;;;;0.10;0.10;;;22.80;46.10;;;;;;5054129;28;20292;-56
2023/11/21 02:00:35;;;;;;;0.05;0.05;;;22.80;46.10;;;;;;5054351;28;20204;-54
2023/11/21 02:03:10;;;;;;;0.00;0.00;;;22.80;46.10;;;;;;5054557;28;20199;-48
2023/11/21 02:05:40;;;;;;;0.00;0.00;;;22.80;46.10;;;;;;5049674;28;20220;-48
2023/11/21 02:08:11;;;;;;;0.00;0.00;;;22.90;46.10;;;;;;5033721;28;20231;-49
2023/11/21 02:10:42;;;;;;;0.00;0.00;;;22.90;46.10;;;;;;5035584;28;20192;-49
2023/11/21 02:13:11;;;;;;;0.00;0.00;;;22.90;46.10;;;;;;5052335;28;20194;-47
2023/11/21 02:15:42;;;;;;;0.00;0.00;;;22.90;46.10;;;;;;5033688;28;20203;-49
2023/11/21 02:18:15;;;;;;;0.00;0.00;;;22.90;46.10;;;;;;5033632;28;20223;-51
2023/11/21 02:20:46;;;;;;;0.00;0.00;;;22.90;46.10;;;;;;5033748;28;20252;-51
2023/11/21 02:23:19;;;;;;;0.00;0.00;;;23.00;46.10;;;;;;5034057;28;20573;-51
2023/11/21 02:25:49;;;;;;;0.00;0.00;;;23.00;46.70;;;;;;5033993;28;20204;-51
2023/11/21 02:28:25;;;;;;;0.00;0.00;;;23.00;46.10;;;;;;5033235;28;20220;-52
2023/11/21 02:30:58;;;;;;;0.00;0.00;;;23.00;46.10;;;;;;5033060;28;20369;-54
2023/11/21 02:33:29;;;;;;;0.00;0.00;;;23.00;46.10;;;;;;5033905;28;20200;-51
2023/11/21 02:36:00;;;;;;;0.08;0.08;;;23.10;46.20;;;;;;5033534;28;20199;-50
2023/11/21 02:38:32;;;;;;;0.00;0.00;;;23.10;46.20;;;;;;5033137;28;20231;-51
2023/11/21 02:41:04;;;;;;;0.00;0.00;;;23.10;46.20;;;;;;5038047;28;20199;-50
2023/11/21 02:43:34;;;;;;;0.00;0.00;;;23.10;46.20;;;;;;5052844;28;20282;-51
2023/11/21 02:46:05;;;;;;;0.00;0.00;;;23.10;46.20;;;;;;5053136;28;20208;-51
2023/11/21 02:48:36;;;;;;;0.00;0.00;;;23.10;46.20;;;;;;5053241;28;20699;-48
2023/11/21 02:51:06;;;;;;;0.00;0.00;;;23.10;46.20;;;;;;5037971;28;20212;-50
2023/11/21 02:53:39;;;;;;;0.00;0.00;;;23.10;46.80;;;;;;5032846;28;20192;-49
2023/11/21 02:56:11;;;;;;;0.00;0.00;;;23.20;46.30;;;;;;5033113;28;20199;-49
2023/11/21 02:58:43;;;;;;;0.00;0.00;;;23.20;46.30;;;;;;5032962;28;20583;-51
2023/11/21 03:01:14;;;;;;;0.00;0.00;;;23.20;46.30;;;;;;5033349;28;20200;-51
2023/11/21 03:03:45;;;;;;;0.10;0.10;;;23.20;46.30;;;;;;5033222;28;20204;-52
2023/11/21 03:06:16;;;;;;;0.00;0.00;;;23.20;46.40;;;;;;5033106;28;20196;-51
2023/11/21 03:08:48;;;;;;;0.00;0.00;;;23.30;46.40;;;;;;5032643;28;20219;-51
2023/11/21 03:11:19;;;;;;;0.00;0.00;;;23.30;46.40;;;;;;5039992;28;20204;-56
2023/11/21 03:13:49;;;;;;;0.03;0.03;;;23.30;46.50;;;;;;5052801;28;20209;-56
2023/11/21 03:16:21;;;;;;;0.03;0.03;;;23.30;46.50;;;;;;5052840;28;20199;-55
2023/11/21 03:18:52;;;;;;;0.00;0.00;;;23.30;46.40;;;;;;5052831;28;20741;-56
2023/11/21 03:21:22;;;;;;;0.00;0.00;;;23.40;46.40;;;;;;5052728;28;20621;-56
2023/11/21 03:23:55;;;;;;;0.10;0.10;;;23.40;46.40;;;;;;5052507;28;20195;-54
2023/11/21 03:26:26;;;;;;;0.00;0.00;;;23.40;46.50;;;;;;5053150;28;20210;-56
2023/11/21 03:28:56;;;;;;;0.05;0.05;;;23.40;46.50;;;;;;5052446;28;20625;-53
2023/11/21 03:31:28;;;;;;;0.00;0.00;;;23.40;46.40;;;;;;5052392;28;20539;-56
2023/11/21 03:33:59;;;;;;;0.00;0.00;;;23.40;46.50;;;;;;5052694;28;20242;-55
2023/11/21 03:36:29;;;;;;;0.00;0.00;;;23.40;46.50;;;;;;5051923;28;20215;-56
2023/11/21 03:39:02;;;;;;;0.00;0.00;;;23.50;46.50;;;;;;5051782;28;20235;-55
2023/11/21 03:41:33;;;;;;;0.00;0.00;;;23.50;46.50;;;;;;5051975;28;20214;-54
2023/11/21 03:44:04;;;;;;;0.00;0.00;;;23.50;46.60;;;;;;5052113;28;20195;-53
2023/11/21 03:46:35;;;;;;;0.00;0.00;;;23.50;46.60;;;;;;5052451;28;20651;-54
2023/11/21 03:49:05;;;;;;;0.00;0.00;;;23.50;46.60;;;;;;5052296;28;20215;-53
2023/11/21 03:51:37;;;;;;;0.00;0.00;;;23.60;46.60;;;;;;5052645;28;20660;-54
2023/11/21 03:54:10;;;;;;;0.00;0.00;;;23.60;46.60;;;;;;5052268;28;20615;-55
2023/11/21 03:56:40;;;;;;;0.00;0.00;;;23.60;46.60;;;;;;5052246;28;20199;-54
2023/11/21 03:59:11;;;;;;;0.00;0.00;;;23.70;46.70;;;;;;5051662;28;20726;-55
2023/11/21 04:01:42;;;;;;;0.00;0.00;;;23.70;46.70;;;;;;5052652;28;20199;-54
2023/11/21 04:04:12;;;;;;;0.10;0.10;;;23.70;46.70;;;;;;5052035;28;20563;-54
2023/11/21 04:06:43;;;;;;;0.00;0.00;;;23.70;46.60;;;;;;5043317;28;20192;-55
2023/11/21 04:09:16;;;;;;;0.00;0.00;;;23.70;46.60;;;;;;5031696;28;20215;-54
2023/11/21 04:11:46;;;;;;;0.05;0.05;;;23.70;46.60;;;;;;5042841;28;20443;-54
2023/11/21 04:14:18;;;;;;;0.00;0.00;;;23.80;46.60;;;;;;5051660;28;20628;-56
2023/11/21 04:16:49;;;;;;;0.00;0.00;;;23.80;46.60;;;;;;5051685;28;20238;-58
2023/11/21 04:19:20;;;;;;;0.00;0.00;;;23.80;46.50;;;;;;5030759;28;20228;-52
2023/11/21 04:21:51;;;;;;;0.03;0.03;;;23.80;46.50;;;;;;5031220;28;20197;-49
2023/11/21 04:24:23;;;;;;;0.00;0.00;;;23.80;46.50;;;;;;5031243;28;20200;-54
2023/11/21 04:26:54;;;;;;;0.00;0.00;;;23.80;46.50;;;;;;5031774;28;20204;-55
2023/11/21 04:29:24;;;;;;;0.00;0.00;;;23.90;46.50;;;;;;5031438;28;20212;-56
2023/11/21 04:31:55;;;;;;;0.00;0.00;;;23.80;46.50;;;;;;5031378;28;20196;-51
2023/11/21 04:34:26;;;;;;;0.00;0.00;;;23.90;46.50;;;;;;5031566;28;20196;-55
2023/11/21 04:36:56;;;;;;;0.00;0.00;;;23.90;46.50;;;;;;5031541;28;20196;-51
2023/11/21 04:39:29;;;;;;;0.00;0.00;;;23.90;46.50;;;;;;5031608;28;20259;-55
2023/11/21 04:42:00;;;;;;;0.00;0.00;;;23.90;46.50;;;;;;5044324;28;20195;-50
2023/11/21 04:44:30;;;;;;;0.00;0.00;;;24.00;46.50;;;;;;5039757;28;20531;-51
2023/11/21 04:47:04;;;;;;;0.00;0.00;;;24.00;46.50;;;;;;5031780;28;20199;-55
2023/11/21 04:49:35;;;;;;;0.00;0.00;;;24.00;46.50;;;;;;5031153;28;20188;-55
2023/11/21 04:52:06;;;;;;;0.00;0.00;;;24.00;46.50;;;;;;5031270;28;20196;-54
2023/11/21 04:54:39;;;;;;;0.00;0.00;;;24.00;46.50;;;;;;5031734;28;20616;-55
2023/11/21 04:57:10;;;;;;;0.00;0.00;;;24.00;46.50;;;;;;5031306;28;20203;-55
2023/11/21 04:59:41;;;;;;;0.00;0.00;;;24.00;46.50;;;;;;5031487;28;20281;-54
2023/11/21 05:02:12;;;;;;;0.00;0.00;;;24.00;46.60;;;;;;5031374;28;20207;-52
2023/11/21 05:04:42;;;;;;;0.00;0.00;;;24.00;46.60;;;;;;5031553;28;20196;-53
2023/11/21 05:07:13;;;;;;;0.00;0.00;;;24.00;46.60;;;;;;5031122;28;20207;-50
2023/11/21 05:09:47;;;;;;;0.00;0.00;;;24.00;46.60;;;;;;5030941;28;20237;-55
2023/11/21 05:12:18;;;;;;;0.00;0.00;;;24.00;46.60;;;;;;5046221;28;20617;-49
2023/11/21 05:14:49;;;;;;;0.00;0.00;;;24.10;46.70;;;;;;5050834;28;20210;-55
2023/11/21 05:17:19;;;;;;;0.10;0.10;;;24.10;46.70;;;;;;5051112;28;20200;-51
2023/11/21 05:19:50;;;;;;;0.00;0.00;;;24.10;46.70;;;;;;5051100;28;20227;-55
2023/11/21 05:22:20;;;;;;;0.00;0.00;;;24.10;46.70;;;;;;5051063;28;20222;-50
2023/11/21 05:24:53;;;;;;;0.00;0.00;;;24.10;46.60;;;;;;5050780;28;20647;-55
2023/11/21 05:27:24;;;;;;;0.00;0.00;;;24.10;46.60;;;;;;5050767;28;20202;-55
2023/11/21 05:29:55;;;;;;;0.00;0.00;;;24.10;46.70;;;;;;5051174;28;20191;-54
2023/11/21 05:32:25;;;;;;;0.00;0.00;;;24.10;46.70;;;;;;5050998;28;20195;-49
2023/11/21 05:34:56;;;;;;;0.00;0.00;;;24.10;46.60;;;;;;5051255;28;20196;-55
2023/11/21 05:37:27;;;;;;;0.10;0.10;;;24.10;46.70;;;;;;5050977;28;20199;-55
2023/11/21 05:40:04;;;;;;;0.00;0.00;;;24.10;46.70;;;;;;5050892;28;20419;-51
2023/11/21 05:42:35;;;;;;;0.00;0.00;;;24.10;46.70;;;;;;5051010;28;20215;-53
2023/11/21 05:45:10;;;;;;;0.10;0.10;;;24.10;46.80;;;;;;5051072;28;20199;-55
2023/11/21 05:47:42;;;;;;;0.00;0.00;;;24.10;46.80;;;;;;5050822;28;20302;-51
2023/11/21 05:50:14;;;;;;;0.00;0.00;;;24.10;46.80;;;;;;5050967;28;20207;-55
2023/11/21 05:52:46;;;;;;;0.00;0.00;;;24.10;46.80;;;;;;5050996;28;20197;-52
2023/11/21 05:55:20;;;;;;;0.00;0.00;;;24.10;46.80;;;;;;5051019;28;20195;-49
2023/11/21 05:57:51;;;;;;;0.00;0.00;;;24.10;46.90;;;;;;5050462;28;20215;-51
2023/11/21 06:00:22;;;;;;;0.00;0.00;;;24.10;46.90;;;;;;5051795;28;20227;-55
2023/11/21 06:02:53;;;;;;;0.00;0.00;;;24.10;46.80;;;;;;5054461;28;20207;-47
2023/11/21 06:05:25;;;;;;;0.00;0.00;;;24.10;46.90;;;;;;5054082;28;20235;-48
2023/11/21 06:07:58;;;;;;;0.00;0.00;;;24.10;46.90;;;;;;5035502;28;20231;-51
2023/11/21 06:10:31;;;;;;;0.08;0.08;;;24.10;46.90;;;;;;5034217;28;20203;-46
2023/11/21 06:13:03;;;;;;;0.00;0.00;;;24.10;46.90;;;;;;5051408;28;20198;-48
2023/11/21 06:15:34;;;;;;;0.10;0.10;;;24.10;46.90;;;;;;5034407;28;20207;-56
2023/11/21 06:18:09;;;;;;;0.00;0.00;;;24.10;46.90;;;;;;5033834;28;20219;-55
2023/11/21 06:20:40;;;;;;;0.00;0.00;;;24.10;46.90;;;;;;5032812;28;20191;-50
2023/11/21 06:23:11;;;;;;;0.00;0.00;;;24.20;46.90;;;;;;5033590;28;20659;-55
2023/11/21 06:25:43;;;;;;;0.00;0.00;;;24.10;46.80;;;;;;5032486;28;20748;-54
2023/11/21 06:28:17;;;;;;;0.00;0.00;;;24.10;46.80;;;;;;5033558;28;20216;-52
2023/11/21 06:30:48;;;;;;;0.00;0.00;;;24.10;46.80;;;;;;5034635;28;20254;-51
2023/11/21 06:33:19;;;;;;;0.00;0.00;;;24.20;47.50;;;;;;5033418;28;20236;-51
2023/11/21 06:35:50;;;;;;;0.00;0.00;;;24.20;46.90;;;;;;5033271;28;20198;-55
2023/11/21 06:38:21;;;;;;;0.00;0.00;;;24.20;46.90;;;;;;5033886;28;20224;-54
2023/11/21 06:40:54;;;;;;;0.00;0.00;;;24.20;46.90;;;;;;5036692;28;20204;-48
2023/11/21 06:43:25;;;;;;;0.00;0.00;;;24.20;46.90;;;;;;5053282;28;20203;-52
2023/11/21 06:45:56;;;;;;;0.00;0.00;;;24.20;46.90;;;;;;5037046;28;20573;-47
2023/11/21 06:48:26;;;;;;;0.00;0.00;;;24.20;46.90;;;;;;5033402;28;20224;-50
2023/11/21 06:50:57;;;;;;;0.00;0.00;;;24.20;46.80;;;;;;5032950;28;20283;-49
2023/11/21 06:53:28;;;;;;;0.00;0.00;;;24.20;46.90;;;;;;5032275;28;20205;-48
2023/11/21 06:56:03;;;;;;;0.00;0.00;;;24.20;46.90;;;;;;5033464;28;20188;-42
2023/11/21 06:58:35;;;;;;;0.00;0.00;;;24.10;46.80;;;;;;5032904;28;20580;-44
2023/11/21 07:01:06;;;;;;;0.00;0.00;;;24.20;46.80;;;;;;5033089;28;20200;-46
2023/11/21 07:03:37;;;;;;;0.00;0.00;;;24.20;46.80;;;;;;5030392;28;20196;-44
2023/11/21 07:06:08;;;;;;;0.00;0.00;;;24.20;46.80;;;;;;5013446;28;20243;-45
2023/11/21 07:08:38;;;;;;;0.00;0.00;;;24.20;46.80;;;;;;5013003;28;20596;-44
2023/11/21 07:11:11;;;;;;;0.00;0.00;;;24.20;46.80;;;;;;5024088;28;20203;-45
2023/11/21 07:13:42;;;;;;;0.00;0.00;;;24.10;46.70;;;;;;5052149;28;20486;-44
2023/11/21 07:16:13;;;;;;;0.00;0.00;;;24.10;46.70;;;;;;5052850;28;20200;-43
2023/11/21 07:18:43;;;;;;;0.00;0.00;;;24.10;46.70;;;;;;5052607;28;20219;-44
2023/11/21 07:21:15;;;;;;;0.00;0.00;;;24.10;46.70;;;;;;5052218;28;20195;-45
2023/11/21 07:23:46;;;;;;;0.00;0.00;;;24.10;46.70;;;;;;5051109;28;20241;-45
2023/11/21 07:26:18;;;;;;;0.00;0.00;;;24.10;46.60;;;;;;5052837;28;20573;-48
2023/11/21 07:28:49;;;;;;;0.00;0.00;;;24.10;46.60;;;;;;5052349;28;20223;-49
2023/11/21 07:31:20;;;;;;;0.00;0.00;;;24.10;46.60;;;;;;5052822;28;20656;-51
2023/11/21 07:33:52;;;;;;;0.00;0.00;;;24.10;46.60;;;;;;5053039;28;20744;-47
2023/11/21 07:36:23;;;;;;;0.00;0.00;;;24.00;46.60;;;;;;5052376;28;20192;-51
2023/11/21 07:38:54;;;;;;;0.00;0.00;;;24.00;46.60;;;;;;5051140;28;20527;-48
2023/11/21 07:41:26;;;;;;;0.00;0.00;;;24.00;46.60;;;;;;5051659;28;20599;-50
2023/11/21 07:43:57;;;;;;;0.00;0.00;;;24.00;46.70;;;;;;5051625;28;20581;-52
2023/11/21 07:46:29;;;;;;;0.08;0.08;;;24.00;46.60;;;;;;5051733;28;20231;-47
2023/11/21 07:48:59;;;;;;;0.00;0.00;;;23.90;46.60;;;;;;5052012;28;20211;-52
2023/11/21 07:51:30;;;;;;;0.00;0.00;;;23.90;46.60;;;;;;5052186;28;20199;-47
2023/11/21 07:54:00;;;;;;;0.10;0.10;;;23.90;46.60;;;;;;5051034;28;20200;-49
2023/11/21 07:56:33;;;;;;;0.05;0.05;;;23.90;46.60;;;;;;5051712;28;20625;-52
2023/11/21 07:59:04;;;;;;;0.00;0.00;;;23.80;46.60;;;;;;5051731;28;20606;-49
2023/11/21 08:01:35;;;;;;;0.00;0.00;;;23.80;46.60;;;;;;5052142;28;20624;-52
2023/11/21 08:04:06;;;;;;;0.00;0.00;;;23.90;46.60;;;;;;5051635;28;20649;-48
2023/11/21 08:06:37;;;;;;;0.00;0.00;;;23.80;46.60;;;;;;5051987;28;20203;-51
2023/11/21 08:09:08;;;;;;;0.00;0.00;;;23.80;46.60;;;;;;5050991;28;20622;-51
2023/11/21 08:11:40;;;;;;;0.00;0.00;;;23.80;46.60;;;;;;5041168;28;20275;-54
2023/11/21 08:14:11;;;;;;;0.10;0.10;;;23.80;46.60;;;;;;5031468;28;20202;-52
2023/11/21 08:16:41;;;;;;;0.10;0.10;;;23.80;46.50;;;;;;5031655;28;20200;-47
2023/11/21 08:19:12;;;;;;;0.00;0.00;;;23.70;46.50;;;;;;5031445;28;20254;-46
2023/11/21 08:21:43;;;;;;;0.00;0.00;;;23.70;46.50;;;;;;5031324;28;20576;-52
2023/11/21 08:24:14;;;;;;;0.10;0.10;;;23.70;46.50;;;;;;5028254;28;20208;-51
2023/11/21 08:26:46;;;;;;;0.00;0.00;;;23.70;46.50;;;;;;5031769;28;20200;-54
2023/11/21 08:29:17;;;;;;;0.00;0.00;;;23.70;46.60;;;;;;5031351;28;20230;-50
2023/11/21 08:31:48;;;;;;;0.00;0.00;;;23.70;46.60;;;;;;5030765;28;20200;-56
2023/11/21 08:34:18;;;;;;;0.10;0.10;;;23.60;46.60;;;;;;5044814;28;20624;-53
2023/11/21 08:36:50;;;;;;;0.00;0.00;;;23.60;46.60;;;;;;5008831;28;20580;-50
2023/11/21 08:39:21;;;;;;;0.00;0.00;;;23.60;46.60;;;;;;5010107;28;20223;-56
2023/11/21 08:41:56;;;;;;;0.00;0.00;;;23.60;46.60;;;;;;5030999;28;20718;-53
2023/11/21 08:44:27;;;;;;;0.00;0.00;;;23.50;46.60;;;;;;5011308;28;20197;-53
2023/11/21 08:46:57;;;;;;;0.00;0.00;;;23.50;46.60;;;;;;5029523;28;20202;-55
2023/11/21 08:49:30;;;;;;;0.10;0.10;;;23.50;46.60;;;;;;5031011;28;20224;-48
2023/11/21 08:52:00;;;;;;;0.10;0.10;;;23.50;46.60;;;;;;5031167;28;20202;-51
2023/11/21 08:54:31;;;;;;;0.00;0.00;;;23.50;46.60;;;;;;5030455;28;20200;-54
2023/11/21 08:57:03;;;;;;;0.08;0.08;;;23.40;46.50;;;;;;5032669;28;20200;-54
2023/11/21 08:59:34;;;;;;;0.00;0.00;;;23.40;46.50;;;;;;5029254;28;20635;-57
2023/11/21 09:02:05;;;;;;;0.00;0.00;;;23.40;46.50;;;;;;5048312;28;20199;-47
2023/11/21 09:04:36;;;;;;;0.00;0.00;;;23.40;46.50;;;;;;5032582;28;20196;-55
2023/11/21 09:07:08;;;;;;;0.00;0.00;;;23.40;46.50;;;;;;5031021;28;20303;-55
2023/11/21 09:09:39;;;;;;;0.00;0.00;;;23.40;46.40;;;;;;5030072;28;20211;-49
2023/11/21 09:12:12;;;;;;;0.00;0.00;;;23.40;46.50;;;;;;5034554;28;20210;-58
2023/11/21 09:14:43;;;;;;;0.00;0.00;;;23.30;46.40;;;;;;5030432;28;20652;-57
2023/11/21 09:17:14;;;;;;;0.00;0.00;;;23.30;46.40;;;;;;5030383;28;20208;-55
2023/11/21 09:19:47;;;;;;;0.08;0.08;;;23.30;46.40;;;;;;5030135;28;20227;-55
2023/11/21 09:22:17;;;;;;;0.00;0.00;;;23.20;46.30;;;;;;5030419;28;20282;-55
2023/11/21 09:24:48;;;;;;;0.00;0.00;;;23.20;46.40;;;;;;5030469;28;20204;-56
2023/11/21 09:27:21;;;;;;;0.00;0.00;;;23.20;46.30;;;;;;5029718;28;20200;-56
2023/11/21 09:29:52;;;;;;;0.03;0.03;;;23.20;46.40;;;;;;5031059;28;20196;-57
2023/11/21 09:32:23;;;;;;;0.05;0.05;;;23.20;46.40;;;;;;5030596;28;20196;-52
2023/11/21 09:34:55;;;;;;;0.00;0.00;;;23.10;46.90;;;;;;5030198;28;20192;-55
2023/11/21 09:37:26;;;;;;;0.00;0.00;;;23.10;46.30;;;;;;5034519;28;20293;-55
2023/11/21 09:39:57;;;;;;;0.10;0.10;;;23.10;46.40;;;;;;5034118;28;20240;-55
2023/11/21 09:42:38;;;;;;;0.00;0.00;;;23.10;46.30;;;;;;5050273;28;20203;-55
2023/11/21 09:45:17;;;;;;;0.05;0.05;;;23.00;46.20;;;;;;5053989;28;20211;-55
2023/11/21 09:47:49;;;;;;;0.00;0.00;;;23.00;46.20;;;;;;5054428;28;20319;-56
2023/11/21 09:50:21;;;;;;;0.00;0.00;;;23.00;46.20;;;;;;5053418;28;20200;-53
2023/11/21 09:53:00;;;;;;;0.00;0.00;;;23.00;46.20;;;;;;5042160;28;20695;-42
2023/11/21 09:55:35;;;;;;;0.00;0.00;;;23.00;46.20;;;;;;5033997;28;20199;-54
2023/11/21 09:58:11;;;;;;;0.00;0.00;;;22.90;46.20;;;;;;5034184;28;20557;-56
2023/11/21 10:00:44;;;;;;;0.00;0.00;;;22.90;46.20;;;;;;5033842;28;20243;-56
2023/11/21 10:03:16;;;;;;;0.00;0.00;;;22.90;46.20;;;;;;5033715;28;20204;-56
2023/11/21 10:05:47;;;;;;;0.00;0.00;;;22.80;46.20;;;;;;5032616;28;20283;-56
2023/11/21 10:08:18;;;;;;;0.00;0.00;;;22.80;46.20;;;;;;5033347;28;20222;-54
2023/11/21 10:10:51;;;;;;;0.00;0.00;;;22.80;46.20;;;;;;5037086;28;20203;-57
2023/11/21 10:13:24;;;;;;;0.00;0.00;;;22.80;46.20;;;;;;5053127;28;20232;-47
2023/11/21 10:15:56;;;;;;;0.00;0.00;;;22.70;46.10;;;;;;5053971;28;20195;-44
2023/11/21 10:18:27;;;;;;;0.00;0.00;;;22.70;46.10;;;;;;5026149;28;20223;-56
2023/11/21 10:20:58;;;;;;;0.00;0.00;;;22.70;46.10;;;;;;5034251;28;20695;-57
2023/11/21 10:23:29;;;;;;;0.08;0.08;;;22.70;46.10;;;;;;5032805;28;20200;-52
2023/11/21 10:26:01;;;;;;;0.00;0.00;;;22.60;46.10;;;;;;5033458;28;20211;-45
2023/11/21 10:28:39;;;;;;;0.08;0.08;;;22.60;46.10;;;;;;5033597;28;20247;-57
2023/11/21 10:31:11;;;;;;;0.00;0.00;;;22.60;46.10;;;;;;5033409;28;20196;-46
2023/11/21 10:33:42;;;;;;;0.00;0.00;;;22.60;46.10;;;;;;5033652;28;20207;-45
2023/11/21 10:36:13;;;;;;;0.00;0.00;;;22.60;46.10;;;;;;5032854;28;20562;-51
2023/11/21 10:38:50;;;;;;;0.00;0.00;;;22.50;46.10;;;;;;5033312;28;20227;-58
2023/11/21 10:41:22;;;;;;;0.00;0.00;;;22.50;46.10;;;;;;5040264;28;20230;-50
2023/11/21 10:43:57;;;;;;;0.00;0.00;;;22.50;46.10;;;;;;5052367;28;20203;-57
2023/11/21 10:46:30;;;;;;;0.00;0.00;;;22.50;46.10;;;;;;5032573;28;20223;-55
2023/11/21 10:49:01;;;;;;;0.00;0.00;;;22.40;46.10;;;;;;5033639;28;20220;-57
2023/11/21 10:51:32;;;;;;;0.00;0.00;;;22.40;46.10;;;;;;5032743;28;20287;-56
2023/11/21 10:54:03;;;;;;;0.00;0.00;;;22.40;46.10;;;;;;5035824;28;20257;-56
2023/11/21 10:56:35;;;;;;;0.00;0.00;;;22.40;46.10;;;;;;5032880;28;20193;-57
2023/11/21 10:59:08;;;;;;;0.00;0.00;;;22.40;46.10;;;;;;5031275;28;20636;-57
2023/11/21 11:01:39;;;;;;;0.00;0.00;;;22.30;46.10;;;;;;5032527;28;20235;-56
2023/11/21 11:04:14;;;;;;;0.00;0.00;;;22.30;46.10;;;;;;5033004;28;20616;-58
2023/11/21 11:06:46;;;;;;;0.10;0.10;;;22.30;46.10;;;;;;5033321;28;20674;-57
2023/11/21 11:09:17;;;;;;;0.00;0.00;;;22.30;46.10;;;;;;5032661;28;20235;-56
2023/11/21 11:11:47;;;;;;;0.05;0.05;;;22.20;46.10;;;;;;5033648;28;20191;-55
2023/11/21 11:14:24;;;;;;;0.00;0.00;;;22.20;46.10;;;;;;5032029;28;20733;-54
2023/11/21 11:16:59;;;;;;;0.00;0.00;;;22.20;46.10;;;;;;5032097;28;20289;-56
2023/11/21 11:19:30;;;;;;;0.00;0.00;;;22.20;46.10;;;;;;5032957;28;20269;-48
2023/11/21 11:22:11;;;;;;;0.00;0.00;;;22.20;46.10;;;;;;5030154;28;20215;-43
2023/11/21 11:25:01;;;;;;;0.03;0.03;;;22.10;46.00;;;;;;5030275;28;20196;-42
2023/11/21 11:27:44;;;;;;;0.10;0.10;;;22.10;46.10;;;;;;5031159;28;20269;-41
2023/11/21 11:30:26;;;;;;;0.00;0.00;;;22.10;46.00;;;;;;5032178;28;20247;-46
2023/11/21 11:33:09;;;;;;;0.00;0.00;;;22.10;46.00;;;;;;5032181;28;20264;-50
2023/11/21 11:35:51;;;;;;;0.10;0.10;;;22.00;46.00;;;;;;5029461;28;20548;-49
2023/11/21 11:38:25;;;;;;;0.05;0.05;;;22.00;46.00;;;;;;5029558;28;20584;-48
2023/11/21 11:40:57;;;;;;;0.00;0.00;;;22.00;46.00;;;;;;5032593;28;20223;-50
2023/11/21 11:43:32;;;;;;;0.00;0.00;;;22.00;46.00;;;;;;5032026;28;20199;-51
2023/11/21 11:46:07;;;;;;;0.00;0.00;;;21.90;46.00;;;;;;5012646;28;20196;-49
2023/11/21 11:48:42;;;;;;;0.10;0.10;;;21.90;46.00;;;;;;5012299;28;20777;-49
2023/11/21 11:51:17;;;;;;;0.00;0.00;;;21.90;46.00;;;;;;5011985;28;20196;-50
2023/11/21 11:53:48;;;;;;;0.00;0.00;;;21.90;46.10;;;;;;5012312;28;20196;-50
2023/11/21 11:56:34;;;;;;;0.10;0.10;;;21.90;46.10;;;;;;5012323;28;20208;-49
2023/11/21 11:59:08;;;;;;;0.10;0.10;;;21.80;46.00;;;;;;5011555;28;20213;-49
2023/11/21 12:01:47;;;;;;;0.03;0.03;;;21.80;46.00;;;;;;5012325;28;20228;-50
2023/11/21 12:04:34;;;;;;;0.10;0.10;;;21.80;46.00;;;;;;5013011;28;20246;-49
2023/11/21 12:07:05;;;;;;;0.10;0.10;;;21.80;46.00;;;;;;5012618;28;20196;-50
2023/11/21 12:09:36;;;;;;;0.10;0.10;;;21.70;45.90;;;;;;5012137;28;20220;-50
2023/11/21 12:12:07;;;;;;;0.00;0.00;;;21.70;46.00;;;;;;5039716;28;20654;-49
2023/11/21 12:14:40;;;;;;;0.00;0.00;;;21.70;46.00;;;;;;5051495;28;20196;-54
2023/11/21 12:17:12;;;;;;;0.10;0.10;;;21.70;46.10;;;;;;5051496;28;20195;-53
2023/11/21 12:19:43;;;;;;;0.10;0.10;;;21.70;46.10;;;;;;5051805;28;20294;-55
2023/11/21 12:22:14;;;;;;;0.00;0.00;;;21.70;46.10;;;;;;5051706;28;20227;-58
2023/11/21 12:24:45;;;;;;;0.00;0.00;;;21.60;46.00;;;;;;5035700;28;20200;-55
2023/11/21 12:27:16;;;;;;;0.05;0.05;;;21.60;46.00;;;;;;5031755;28;20652;-55
2023/11/21 12:29:46;;;;;;;0.00;0.00;;;21.60;46.10;;;;;;5032177;28;20205;-56
2023/11/21 12:32:20;;;;;;;0.03;0.03;;;21.60;46.10;;;;;;5031815;28;20207;-53
2023/11/21 12:34:51;;;;;;;0.00;0.00;;;21.60;46.10;;;;;;5031437;28;20275;-53
2023/11/21 12:37:22;;;;;;;0.00;0.00;;;21.60;46.10;;;;;;5031800;28;20210;-56
2023/11/21 12:39:54;;;;;;;0.10;0.10;;;21.50;46.10;;;;;;5031415;28;20196;-56
2023/11/21 12:42:25;;;;;;;0.00;0.00;;;21.50;46.10;;;;;;5047396;28;20289;-54
2023/11/21 12:45:25;;;;;;;0.05;0.05;;;21.50;46.10;;;;;;5051406;28;20207;-55
2023/11/21 12:48:00;;;;;;;0.00;0.00;;;21.50;46.10;;;;;;5050261;28;20223;-54
2023/11/21 12:50:33;;;;;;;0.00;0.00;;;21.50;46.10;;;;;;5038370;28;20195;-56
2023/11/21 12:53:05;;;;;;;0.10;0.10;;;21.40;46.00;;;;;;5031252;28;20254;-51
2023/11/21 12:55:37;;;;;;;0.00;0.00;;;21.40;46.10;;;;;;5031397;28;20200;-47
2023/11/21 12:58:10;;;;;;;0.00;0.00;;;21.40;46.70;;;;;;5031055;28;20654;-50
2023/11/21 13:00:42;;;;;;;0.10;0.10;;;21.40;46.10;;;;;;5030667;28;20196;-48
2023/11/21 13:03:16;;;;;;;0.03;0.03;;;21.40;46.10;;;;;;5031115;28;20207;-50
2023/11/21 13:05:50;;;;;;;0.00;0.00;;;21.40;46.80;;;;;;5030416;28;20183;-51
2023/11/21 13:08:22;;;;;;;0.10;0.10;;;21.30;46.00;;;;;;5030889;28;20568;-56
2023/11/21 13:10:56;;;;;;;0.00;0.00;;;21.30;46.10;;;;;;5036777;28;20243;-55
2023/11/21 13:13:27;;;;;;;0.10;0.10;;;21.30;46.10;;;;;;5055014;28;20290;-48
2023/11/21 13:16:00;;;;;;;0.05;0.05;;;21.20;46.10;;;;;;5054553;28;20674;-54